Monday, January 26, 2015, 9:21 AM EST

KEZF, Fredericksburg, Shannon Airport

Location: Fredericksburg, VA, United States Lat: 38.267
Local Time: 9:21 AM EST (14:21 GMT) Lon: -77.45
Time Zone: US/Eastern Elev: 85 ft

Show me the last for .
Show Decoded

2015-01-26 08:55 METAR KEZF 261355Z AUTO 07006KT 10SM RA OVC007 04/04 A2975 RMK AO2 P0002
                 T00440044 =
2015-01-26 08:35 METAR KEZF 261335Z AUTO 06006KT 7SM -RA OVC005 04/04 A2975 RMK AO2 P0001
                 T00430043 =
2015-01-26 08:15 METAR KEZF 261315Z AUTO 05004KT 7SM -RA OVC007 04/04 A2975 RMK AO2 P0001
                 T00430043 =
2015-01-26 07:55 METAR KEZF 261255Z AUTO 04005KT 5SM RA OVC007 04/04 A2976 RMK AO2 P0007
                 T00410041 =
2015-01-26 07:35 METAR KEZF 261235Z AUTO 36004KT 4SM RA OVC005 04/04 A2976 RMK AO2 P0005
                 T00410041 =
2015-01-26 07:15 METAR KEZF 261215Z AUTO 06003KT 5SM RA OVC005 04/04 A2976 RMK AO2 P0002
                 T00400040 =
2015-01-26 06:55 METAR KEZF 261155Z AUTO 00000KT 4SM RA BKN005 BKN008 OVC029 04/04 A2976 RMK AO2
                 P0008 60013 70013 T00410041 10056 20040 =
2015-01-26 06:35 METAR KEZF 261135Z AUTO 00000KT 4SM RA SCT007 OVC028 04/04 A2976 RMK AO2 P0006
                 T00410041 =
2015-01-26 06:15 METAR KEZF 261115Z AUTO 06003KT 4SM RA OVC028 04/04 A2976 RMK AO2 P0003
                 T00400040 =
2015-01-26 05:55 METAR KEZF 261055Z AUTO 00000KT 5SM RA OVC030 04/04 A2976 RMK AO2 P0004
                 T00400040 =
2015-01-26 05:35 METAR KEZF 261035Z AUTO 07003KT 5SM RA OVC030 04/04 A2975 RMK AO2 P0003
                 T00400040 =
2015-01-26 05:15 METAR KEZF 261015Z AUTO 00000KT 7SM -RA OVC032 04/04 A2976 RMK AO2 P0001
                 T00400040 =
2015-01-26 04:55 METAR KEZF 260955Z AUTO 07003KT 7SM -RA BKN034 OVC040 04/04 A2976 RMK AO2 P0001
                 T00400040 =
2015-01-26 04:35 METAR KEZF 260935Z AUTO 08003KT 10SM -RA OVC036 04/04 A2976 RMK AO2 T00400040 =
2015-01-26 04:15 METAR KEZF 260915Z AUTO 08003KT 10SM -RA OVC038 04/04 A2976 RMK AO2 T00410039 =
2015-01-26 03:55 METAR KEZF 260855Z AUTO 10003KT 10SM -RA OVC040 04/03 A2977 RMK AO2 T00430027 =
2015-01-26 03:35 METAR KEZF 260835Z AUTO 00000KT 10SM -RA OVC042 05/03 A2977 RMK AO2 T00460025 =
2015-01-26 03:15 METAR KEZF 260815Z AUTO 00000KT 10SM RA OVC042 05/02 A2978 RMK AO2 T00480023 =
2015-01-26 02:55 METAR KEZF 260755Z AUTO 09005KT 10SM DZ SCT040 BKN047 OVC050 05/02 A2978 RMK AO2
                 T00520020 =
2015-01-26 02:35 METAR KEZF 260735Z AUTO 10003KT 10SM -RA OVC049 06/02 A2978 RMK AO2 T00550018 =
2015-01-26 02:15 METAR KEZF 260715Z AUTO 08004KT 10SM BKN055 OVC065 06/02 A2978 RMK AO2 T00560017
                 =
2015-01-26 01:55 METAR KEZF 260655Z AUTO 00000KT 10SM SCT075 OVC090 05/02 A2979 RMK AO2 T00470019
                 =
2015-01-26 01:35 METAR KEZF 260635Z AUTO 00000KT 10SM SCT075 OVC090 05/02 A2979 RMK AO2 T00490018
                 =
2015-01-26 00:55 METAR KEZF 260555Z AUTO 00000KT 10SM OVC065 05/02 A2981 RMK AO2 T00460018 10055
                 20019 401120003 =
2015-01-26 00:35 METAR KEZF 260535Z AUTO 12003KT 10SM OVC065 05/02 A2981 RMK AO2 T00540016 =
2015-01-26 00:15 METAR KEZF 260515Z AUTO 13005KT 10SM OVC065 04/02 A2982 RMK AO2 T00350019 =
2015-01-25 23:55 METAR KEZF 260455Z AUTO 14005KT 10SM OVC065 04/01 A2983 RMK AO2 T00350012 =
2015-01-25 23:35 METAR KEZF 260435Z AUTO 00000KT 10SM BKN065 04/02 A2983 RMK AO2 T00390016 =
2015-01-25 23:15 METAR KEZF 260415Z AUTO 00000KT 10SM CLR 03/01 A2983 RMK AO2 T00310009 =
2015-01-25 22:55 METAR KEZF 260355Z AUTO 13005KT 10SM CLR 02/01 A2983 RMK AO2 T00230010 =
2015-01-25 22:35 METAR KEZF 260335Z AUTO 11004KT 10SM SCT085 04/02 A2984 RMK AO2 T00360017 =
2015-01-25 22:15 METAR KEZF 260315Z AUTO 14003KT 10SM SCT085 04/02 A2984 RMK AO2 T00370017 =
2015-01-25 21:55 METAR KEZF 260255Z AUTO 00000KT 10SM CLR 04/02 A2984 RMK AO2 T00380020 =
2015-01-25 21:35 METAR KEZF 260235Z AUTO 11003KT 10SM BKN085 05/02 A2983 RMK AO2 T00470019 =
2015-01-25 21:15 METAR KEZF 260215Z AUTO 00000KT 10SM OVC085 05/02 A2984 RMK AO2 T00520020 =
2015-01-25 20:55 METAR KEZF 260155Z AUTO 00000KT 10SM OVC085 04/02 A2984 RMK AO2 T00440021 =
2015-01-25 20:35 METAR KEZF 260135Z AUTO 11003KT 10SM OVC085 05/02 A2984 RMK AO2 T00520022 =
2015-01-25 20:15 METAR KEZF 260115Z AUTO 11003KT 10SM OVC085 05/02 A2984 RMK AO2 T00480021 =
2015-01-25 19:55 METAR KEZF 260055Z AUTO 00000KT 10SM OVC085 05/02 A2984 RMK AO2 T00470020 =
2015-01-25 19:35 METAR KEZF 260035Z AUTO 00000KT 10SM OVC085 05/02 A2984 RMK AO2 T00530021 =
2015-01-25 19:15 METAR KEZF 260015Z AUTO 00000KT 10SM OVC085 05/02 A2984 RMK AO2 T00530020 =
2015-01-25 18:55 METAR KEZF 252355Z AUTO 15003KT 10SM OVC085 05/02 A2984 RMK AO2 T00520018 10112
                 20050 =
2015-01-25 18:35 METAR KEZF 252335Z AUTO 00000KT 10SM BKN085 05/02 A2983 RMK AO2 T00520018 =
2015-01-25 18:15 METAR KEZF 252315Z AUTO 00000KT 10SM CLR 05/02 A2983 RMK AO2 T00520018 =
2015-01-25 17:55 METAR KEZF 252255Z AUTO 00000KT 10SM CLR 07/01 A2983 RMK AO2 T00650013 =
2015-01-25 17:35 METAR KEZF 252235Z AUTO 16004KT 10SM CLR 09/01 A2982 RMK AO2 T00870008 =
2015-01-25 17:15 METAR KEZF 252215Z AUTO 16003KT 10SM SCT055 10/01 A2982 RMK AO2 T00970010 =
2015-01-25 16:55 METAR KEZF 252155Z AUTO 15004KT 10SM OVC055 11/01 A2982 RMK AO2 T01070013 =
2015-01-25 16:35 METAR KEZF 252135Z AUTO 00000KT 10SM BKN055 BKN110 11/01 A2982 RMK AO2 T01080005
                 =
2015-01-25 16:15 METAR KEZF 252115Z AUTO 19004KT 10SM SCT055 11/01 A2982 RMK AO2 T01050007 =
2015-01-25 15:55 METAR KEZF 252055Z AUTO 21006KT 10SM CLR 11/00 A2982 RMK AO2 T01080003 =
2015-01-25 15:35 METAR KEZF 252035Z AUTO 17008KT 10SM CLR 11/01 A2982 RMK AO2 T01100006 =
2015-01-25 15:15 METAR KEZF 252015Z AUTO 18007KT 10SM CLR 11/01 A2983 RMK AO2 T01100005 =
2015-01-25 14:55 METAR KEZF 251955Z AUTO 23006KT 10SM CLR 11/00 A2982 RMK AO2 T01050000 =
2015-01-25 14:35 METAR KEZF 251935Z AUTO 21008KT 10SM CLR 11/00 A2982 RMK AO2 T01050000 =
2015-01-25 14:15 METAR KEZF 251915Z AUTO 19006KT 10SM CLR 11/00 A2981 RMK AO2 T01090000 =
2015-01-25 13:55 METAR KEZF 251855Z AUTO 20006KT 10SM CLR 11/00 A2982 RMK AO2 T01100000 =
2015-01-25 13:35 METAR KEZF 251835Z AUTO 23006KT 10SM CLR 11/00 A2984 RMK AO2 T01050000 =
2015-01-25 13:10 METAR KEZF 251810Z AUTO 23009KT 10SM CLR 10/00 A2985 RMK AO2 T01000001 =
2015-01-25 12:55 METAR KEZF 251755Z AUTO 19006KT 10SM CLR 10/00 A2984 RMK AO2 T01000004 10100
                 20007 =
2015-01-25 12:35 METAR KEZF 251735Z AUTO 20004KT 10SM CLR 09/00 A2985 RMK AO2 T00870001 =
2015-01-25 12:15 METAR KEZF 251715Z AUTO 22005KT 10SM CLR 08/00 A2985 RMK AO2 T00810001 =
2015-01-25 11:55 METAR KEZF 251655Z AUTO 22008KT 10SM CLR 08/00 A2988 RMK AO2 T00760002 =
2015-01-25 11:35 METAR KEZF 251635Z AUTO 21006KT 10SM CLR 07/00 A2988 RMK AO2 T00740003 =
2015-01-25 11:15 METAR KEZF 251615Z AUTO 22009KT 10SM CLR 07/00 A2989 RMK AO2 T00700003 =
2015-01-25 10:55 METAR KEZF 251555Z AUTO 22006KT 10SM CLR 07/00 A2988 RMK AO2 T00650000 =
2015-01-25 10:35 METAR KEZF 251535Z AUTO 24005KT 10SM CLR 06/00 A2988 RMK AO2 T00600001 =
2015-01-25 10:15 METAR KEZF 251515Z AUTO 22004KT 10SM CLR 05/00 A2987 RMK AO2 T00531003 =
2015-01-25 09:55 METAR KEZF 251455Z AUTO 23007KT 10SM CLR 05/00 A2987 RMK AO2 T00481005 =
2015-01-25 09:35 METAR KEZF 251435Z AUTO 23005KT 10SM CLR 04/M01 A2986 RMK AO2 T00391006 =

Support USWX by starting your Amazon purchase here.